Time;durP1;ratioP1;P1;durP2;ratioP2;P2;SDS_P1;SDS_P2;PMS_P1;PMS_P2;Temp;Humidity;BMP_temperature;BMP_pressure;BME280_temperature;BME280_humidity;BME280_pressure;Samples;Min_cycle;Max_cycle;Signal;HPM_P1;HPM_P2
2023/07/21 00:01:12;;;;;;;16.05;6.72;;;;;;;12.94;100.00;101093.00;5020957;28;20030;-79
2023/07/21 00:03:43;;;;;;;17.48;7.70;;;;;;;12.91;100.00;101101.34;5016947;28;20083;-79
2023/07/21 00:06:09;;;;;;;17.67;7.22;;;;;;;12.86;100.00;101086.47;5018987;28;20501;-79
2023/07/21 00:08:38;;;;;;;18.58;7.78;;;;;;;12.85;100.00;101093.69;5021134;28;20064;-78
2023/07/21 00:11:04;;;;;;;18.42;7.30;;;;;;;12.88;100.00;101087.22;5016810;28;20030;-79
2023/07/21 00:13:34;;;;;;;18.60;8.10;;;;;;;12.87;100.00;101091.75;5007514;28;20545;-79
2023/07/21 00:16:02;;;;;;;17.70;7.65;;;;;;;12.85;100.00;101079.38;5013642;28;20061;-80
2023/07/21 00:18:28;;;;;;;19.00;7.75;;;;;;;12.86;100.00;101089.19;5031369;28;20131;-78
2023/07/21 00:20:54;;;;;;;17.88;7.72;;;;;;;12.90;100.00;101087.97;5024044;28;20460;-79
2023/07/21 00:23:19;;;;;;;18.63;7.55;;;;;;;12.90;100.00;101080.72;5017970;28;20337;-79
2023/07/21 00:25:45;;;;;;;19.33;8.45;;;;;;;12.97;100.00;101077.53;5023278;28;20029;-78
2023/07/21 00:28:11;;;;;;;21.13;8.68;;;;;;;12.99;100.00;101073.72;5027048;28;20112;-79
2023/07/21 00:30:37;;;;;;;18.67;8.38;;;;;;;13.00;100.00;101075.47;5025301;28;20036;-79
2023/07/21 00:33:03;;;;;;;19.33;8.00;;;;;;;13.00;100.00;101074.59;5023748;28;20029;-78
2023/07/21 00:35:29;;;;;;;20.48;8.57;;;;;;;12.98;100.00;101071.16;5023931;28;20080;-78
2023/07/21 00:38:00;;;;;;;19.75;8.23;;;;;;;12.98;100.00;101076.56;5017750;28;20034;-79
2023/07/21 00:40:25;;;;;;;20.08;9.18;;;;;;;12.97;100.00;101074.81;5026695;28;20068;-78
2023/07/21 00:42:51;;;;;;;17.70;7.90;;;;;;;12.98;100.00;101066.59;5025000;28;20060;-78
2023/07/21 00:45:16;;;;;;;18.75;7.93;;;;;;;12.98;100.00;101071.16;5022183;28;20018;-79
2023/07/21 00:47:42;;;;;;;18.70;8.75;;;;;;;12.93;100.00;101066.97;5013992;28;20462;-79
2023/07/21 00:50:10;;;;;;;20.45;9.07;;;;;;;12.88;100.00;101066.47;5029286;28;20075;-79
2023/07/21 00:52:36;;;;;;;19.05;8.63;;;;;;;12.87;100.00;101058.50;5017738;28;20056;-78
2023/07/21 00:55:02;;;;;;;21.08;8.60;;;;;;;12.85;100.00;101064.03;5024769;28;20025;-78
2023/07/21 00:57:28;;;;;;;19.63;8.80;;;;;;;12.82;100.00;101064.28;5012240;28;20033;-78
2023/07/21 00:59:53;;;;;;;19.92;8.45;;;;;;;12.80;100.00;101055.47;5017048;28;20045;-79
2023/07/21 01:02:19;;;;;;;20.77;9.52;;;;;;;12.79;100.00;101055.59;5039756;28;20113;-78
2023/07/21 01:04:45;;;;;;;20.15;9.55;;;;;;;12.79;100.00;101058.28;5025077;28;20110;-79
2023/07/21 01:07:10;;;;;;;18.52;8.80;;;;;;;12.79;100.00;101052.88;5022479;28;20033;-78
2023/07/21 01:09:38;;;;;;;19.58;8.77;;;;;;;12.79;100.00;101052.88;5024179;28;20394;-78
2023/07/21 01:12:07;;;;;;;23.13;9.63;;;;;;;12.77;100.00;101051.16;5024712;28;20374;-79
2023/07/21 01:14:36;;;;;;;20.65;10.38;;;;;;;12.75;100.00;101045.03;5021553;28;20036;-79
2023/07/21 01:17:03;;;;;;;19.92;9.25;;;;;;;12.76;100.00;101038.66;5024603;28;20096;-79
2023/07/21 01:19:29;;;;;;;19.52;9.23;;;;;;;12.73;100.00;101038.91;5016523;28;20064;-78
2023/07/21 01:22:35;;;;;;;19.55;9.68;;;;;;;12.77;100.00;101042.22;5021840;28;20494;-78
2023/07/21 01:25:07;;;;;;;19.23;8.68;;;;;;;12.68;100.00;101035.72;4984645;28;20048;-79
2023/07/21 01:27:39;;;;;;;20.40;9.43;;;;;;;12.65;100.00;101038.66;4985256;28;20043;-79
2023/07/21 01:30:09;;;;;;;19.92;9.00;;;;;;;12.63;100.00;101035.22;4983658;28;20126;-79
2023/07/21 01:32:37;;;;;;;20.63;9.55;;;;;;;12.59;100.00;101031.91;4975414;28;20042;-78
2023/07/21 01:35:04;;;;;;;20.60;10.30;;;;;;;12.58;100.00;101032.88;4992292;28;20116;-79
2023/07/21 01:37:31;;;;;;;20.15;9.82;;;;;;;12.52;100.00;101027.97;4982037;28;20548;-79
2023/07/21 01:39:58;;;;;;;20.13;9.43;;;;;;;12.48;100.00;101026.50;4991241;28;20038;-78
2023/07/21 01:42:29;;;;;;;20.00;9.57;;;;;;;12.45;100.00;101031.28;4992203;28;20486;-79
2023/07/21 01:44:56;;;;;;;22.48;9.80;;;;;;;12.41;100.00;101018.03;4974730;28;20038;-79
2023/07/21 01:47:24;;;;;;;19.17;9.20;;;;;;;12.41;100.00;101018.03;4983903;28;20027;-77
2023/07/21 01:49:49;;;;;;;20.23;9.38;;;;;;;12.37;100.00;101018.38;4977121;28;20054;-79
2023/07/21 01:52:16;;;;;;;21.48;9.93;;;;;;;12.37;100.00;101016.56;4982559;28;20470;-79
2023/07/21 01:54:56;;;;;;;19.58;9.10;;;;;;;12.39;100.00;101016.44;4975834;28;20565;-79
2023/07/21 01:57:30;;;;;;;19.08;10.02;;;;;;;12.34;100.00;101010.53;4975152;28;20026;-79
2023/07/21 01:59:59;;;;;;;19.63;9.75;;;;;;;12.30;100.00;101012.63;5017695;28;20374;-78
2023/07/21 02:02:24;;;;;;;21.08;10.45;;;;;;;12.29;100.00;101007.38;5018680;28;20430;-78
2023/07/21 02:04:50;;;;;;;20.27;9.43;;;;;;;12.26;100.00;101005.75;5020375;28;20064;-78
2023/07/21 02:07:18;;;;;;;21.02;9.30;;;;;;;12.26;100.00;101008.47;5024425;28;20079;-79
2023/07/21 02:09:43;;;;;;;20.20;9.05;;;;;;;12.23;100.00;101001.47;5020536;28;20025;-78
2023/07/21 02:12:11;;;;;;;18.90;9.52;;;;;;;12.19;100.00;101002.69;5016951;28;20069;-79
2023/07/21 02:14:36;;;;;;;19.77;9.20;;;;;;;12.17;100.00;101001.09;5025245;28;20095;-78
2023/07/21 02:17:02;;;;;;;20.17;9.05;;;;;;;12.18;100.00;100998.28;5023394;28;20393;-79
2023/07/21 02:19:27;;;;;;;20.15;9.52;;;;;;;12.16;100.00;100997.53;5022959;28;20026;-78
2023/07/21 02:21:52;;;;;;;19.38;9.65;;;;;;;12.14;100.00;100995.91;5020596;28;20060;-78
2023/07/21 02:24:18;;;;;;;19.25;9.25;;;;;;;12.09;100.00;100993.59;5015584;28;20386;-78
2023/07/21 02:26:43;;;;;;;21.25;10.18;;;;;;;12.12;100.00;100998.75;5020658;28;20064;-79
2023/07/21 02:29:10;;;;;;;19.58;9.52;;;;;;;12.11;100.00;100999.75;5024669;28;20021;-79
2023/07/21 02:31:37;;;;;;;19.38;9.82;;;;;;;12.08;100.00;100997.28;5023458;28;20045;-79
2023/07/21 02:34:04;;;;;;;21.42;10.32;;;;;;;12.05;100.00;100997.53;5008597;28;20561;-80
2023/07/21 02:36:29;;;;;;;19.27;9.43;;;;;;;11.99;100.00;100992.59;5035006;28;20036;-78
2023/07/21 02:38:56;;;;;;;20.58;9.95;;;;;;;11.96;100.00;100993.69;5021452;28;20025;-79
2023/07/21 02:41:21;;;;;;;20.65;9.43;;;;;;;11.94;100.00;100992.09;5024255;28;20022;-79
2023/07/21 02:43:47;;;;;;;18.35;8.25;;;;;;;11.95;100.00;100986.59;5018117;28;20057;-79
2023/07/21 02:46:13;;;;;;;20.42;9.80;;;;;;;11.96;100.00;100987.44;5024237;28;20385;-78
2023/07/21 02:48:38;;;;;;;18.73;9.13;;;;;;;11.94;100.00;100984.00;5026131;28;20025;-79
2023/07/21 02:51:03;;;;;;;19.00;8.63;;;;;;;11.93;100.00;100990.34;5021823;28;20548;-77
2023/07/21 02:53:30;;;;;;;18.25;7.95;;;;;;;11.95;100.00;100985.72;5022073;28;20061;-78
2023/07/21 02:55:56;;;;;;;19.52;8.82;;;;;;;11.94;100.00;100984.00;5010710;28;20076;-78
2023/07/21 02:58:26;;;;;;;19.00;8.50;;;;;;;11.93;100.00;100987.66;5022355;28;20053;-78
2023/07/21 03:00:54;;;;;;;22.92;9.50;;;;;;;11.89;100.00;100990.56;5024243;28;20025;-77
2023/07/21 03:03:19;;;;;;;19.48;8.85;;;;;;;11.86;100.00;100989.97;5016857;28;20092;-79
2023/07/21 03:05:45;;;;;;;20.55;8.15;;;;;;;11.82;100.00;100985.78;5017814;28;20025;-79
2023/07/21 03:08:12;;;;;;;18.70;8.57;;;;;;;11.82;100.00;100985.78;5022613;28;20037;-78
2023/07/21 03:10:37;;;;;;;18.40;8.13;;;;;;;11.78;100.00;100984.31;5019513;28;20493;-79
2023/07/21 03:13:02;;;;;;;21.10;9.18;;;;;;;11.72;100.00;100983.78;5022258;28;20060;-79
2023/07/21 03:15:28;;;;;;;21.15;8.82;;;;;;;11.69;100.00;100984.00;5021482;28;20025;-78
2023/07/21 03:17:54;;;;;;;19.80;8.27;;;;;;;11.65;100.00;100990.59;5019562;28;20038;-79
2023/07/21 03:20:19;;;;;;;18.45;9.00;;;;;;;11.60;100.00;100986.56;5020594;28;20066;-78
2023/07/21 03:22:45;;;;;;;19.45;8.88;;;;;;;11.54;100.00;100993.25;5018821;28;20060;-78
2023/07/21 03:25:13;;;;;;;18.95;8.75;;;;;;;11.49;100.00;100982.84;5014709;28;20032;-79
2023/07/21 03:27:39;;;;;;;20.25;8.63;;;;;;;11.49;100.00;100993.63;5019280;28;20079;-78
2023/07/21 03:30:06;;;;;;;18.95;8.18;;;;;;;11.47;100.00;100990.16;5014499;28;20432;-78
2023/07/21 03:32:31;;;;;;;19.05;8.20;;;;;;;11.44;100.00;100985.00;5002160;28;20033;-79
2023/07/21 03:34:57;;;;;;;18.98;8.65;;;;;;;11.40;100.00;100986.22;5012833;28;20037;-79
2023/07/21 03:37:23;;;;;;;19.25;9.32;;;;;;;11.40;100.00;100990.75;5016233;28;20065;-79
2023/07/21 03:39:48;;;;;;;20.33;9.02;;;;;;;11.41;100.00;100982.56;5019397;28;20017;-79
2023/07/21 03:42:14;;;;;;;20.98;8.68;;;;;;;11.41;100.00;100982.56;5023442;28;20504;-77
2023/07/21 03:44:39;;;;;;;20.08;8.90;;;;;;;11.38;100.00;100990.84;5014294;28;20551;-78
2023/07/21 03:47:05;;;;;;;19.88;8.90;;;;;;;11.40;100.00;100985.34;5014710;28;20481;-79
2023/07/21 03:49:31;;;;;;;18.45;8.35;;;;;;;11.40;100.00;100980.81;5026162;28;20028;-78
2023/07/21 03:51:56;;;;;;;17.42;7.75;;;;;;;11.40;100.00;100990.75;5026055;28;20053;-77
2023/07/21 03:54:22;;;;;;;20.35;9.10;;;;;;;11.37;100.00;100986.44;5024095;28;20061;-78
2023/07/21 03:56:47;;;;;;;19.67;8.98;;;;;;;11.39;100.00;100984.50;5021333;28;20528;-79
2023/07/21 03:59:13;;;;;;;21.33;9.50;;;;;;;11.39;100.00;100984.50;5021826;28;20121;-79
2023/07/21 04:01:38;;;;;;;20.77;8.65;;;;;;;11.42;100.00;100991.47;5026161;28;20033;-78
2023/07/21 04:04:04;;;;;;;18.33;8.40;;;;;;;11.39;100.00;100991.72;5025253;28;20026;-79
2023/07/21 04:06:29;;;;;;;19.88;8.95;;;;;;;11.32;100.00;100976.03;5023368;28;20474;-78
2023/07/21 04:08:54;;;;;;;20.25;9.77;;;;;;;11.31;100.00;100978.84;5015806;28;20034;-78
2023/07/21 04:11:20;;;;;;;17.75;8.15;;;;;;;11.32;100.00;100973.34;5023785;28;20037;-79
2023/07/21 04:13:45;;;;;;;20.40;9.25;;;;;;;11.35;100.00;100972.25;5022531;28;20034;-79
2023/07/21 04:16:11;;;;;;;21.20;9.90;;;;;;;11.35;100.00;100961.50;5022422;28;20072;-78
2023/07/21 04:18:37;;;;;;;24.33;10.93;;;;;;;11.35;100.00;100961.50;5018879;28;20096;-77
2023/07/21 04:21:03;;;;;;;21.55;10.30;;;;;;;11.36;100.00;100957.81;5026578;28;20052;-78
2023/07/21 04:23:28;;;;;;;23.00;11.30;;;;;;;11.42;100.00;100960.06;5015689;28;20084;-79
2023/07/21 04:25:54;;;;;;;21.83;11.52;;;;;;;11.45;100.00;100961.63;5026857;28;20103;-79
2023/07/21 04:28:19;;;;;;;22.58;11.48;;;;;;;11.48;100.00;100956.91;5022208;28;20026;-78
2023/07/21 04:30:46;;;;;;;22.35;11.93;;;;;;;11.51;100.00;100955.81;5022540;28;20116;-78
2023/07/21 04:33:12;;;;;;;23.00;12.45;;;;;;;11.54;100.00;100950.19;5022337;28;20014;-77
2023/07/21 04:35:43;;;;;;;23.40;13.07;;;;;;;11.60;100.00;100962.34;5023502;28;20037;-79
2023/07/21 04:38:09;;;;;;;25.15;13.35;;;;;;;11.63;100.00;100956.72;5014492;28;20065;-78
2023/07/21 04:40:34;;;;;;;23.08;12.38;;;;;;;11.67;100.00;100958.19;5018753;28;20070;-79
2023/07/21 04:42:59;;;;;;;25.55;13.90;;;;;;;11.71;100.00;100962.34;5021989;28;20353;-77
2023/07/21 04:45:25;;;;;;;24.15;14.85;;;;;;;11.78;100.00;100954.69;5018634;28;20525;-78
2023/07/21 04:47:53;;;;;;;23.30;13.73;;;;;;;11.82;100.00;100957.00;5017646;28;20116;-77
2023/07/21 04:50:18;;;;;;;23.13;13.93;;;;;;;11.87;100.00;100952.16;5021607;28;20022;-78
2023/07/21 04:52:44;;;;;;;23.67;14.38;;;;;;;11.94;100.00;100952.53;5024439;28;20051;-79
2023/07/21 04:55:09;;;;;;;24.75;15.90;;;;;;;12.02;100.00;100952.81;5016082;28;20091;-78
2023/07/21 04:57:34;;;;;;;26.27;15.73;;;;;;;12.07;100.00;100947.06;5025362;28;20461;-78
2023/07/21 05:00:00;;;;;;;26.00;15.60;;;;;;;12.15;100.00;100951.84;5024298;28;20473;-78
2023/07/21 05:02:28;;;;;;;27.67;16.83;;;;;;;12.22;100.00;100951.25;5021290;28;20021;-78
2023/07/21 05:04:54;;;;;;;24.13;15.93;;;;;;;12.31;100.00;100952.34;5021631;28;20057;-78
2023/07/21 05:07:20;;;;;;;25.65;15.85;;;;;;;12.36;100.00;100957.41;5023172;28;20036;-77
2023/07/21 05:09:45;;;;;;;24.67;16.65;;;;;;;12.44;100.00;100952.25;5024697;28;20389;-77
2023/07/21 05:12:11;;;;;;;26.60;16.05;;;;;;;12.50;100.00;100943.66;5024744;28;20029;-77
2023/07/21 05:14:37;;;;;;;26.17;17.05;;;;;;;12.53;100.00;100946.13;5012804;28;20034;-77
2023/07/21 05:17:02;;;;;;;24.63;16.10;;;;;;;12.62;100.00;100946.34;5021231;28;20411;-78
2023/07/21 05:19:27;;;;;;;33.65;17.17;;;;;;;12.69;100.00;100952.97;5021972;28;20026;-78
2023/07/21 05:21:53;;;;;;;25.35;16.65;;;;;;;12.73;100.00;100940.97;5021347;28;20037;-78
2023/07/21 05:24:18;;;;;;;26.60;16.55;;;;;;;12.77;100.00;100951.38;5014258;28;20502;-78
2023/07/21 05:26:43;;;;;;;26.55;16.88;;;;;;;12.82;100.00;100948.28;5022901;28;20030;-79
2023/07/21 05:29:09;;;;;;;24.90;15.48;;;;;;;12.88;100.00;100945.09;5024480;28;20115;-77
2023/07/21 05:31:35;;;;;;;26.58;16.58;;;;;;;12.96;100.00;100949.88;5016878;28;20040;-77
2023/07/21 05:34:01;;;;;;;26.20;17.00;;;;;;;13.02;100.00;100951.22;5014072;28;20038;-78
2023/07/21 05:36:26;;;;;;;26.00;15.52;;;;;;;13.10;100.00;100954.13;5018577;28;20024;-77
2023/07/21 05:38:52;;;;;;;26.05;15.45;;;;;;;13.17;100.00;100951.78;5021505;28;20064;-79
2023/07/21 05:41:18;;;;;;;26.33;16.65;;;;;;;13.23;100.00;100945.88;5022048;28;20056;-78
2023/07/21 05:43:44;;;;;;;26.10;16.55;;;;;;;13.29;100.00;100951.63;5025837;28;20052;-78
2023/07/21 05:46:10;;;;;;;26.90;16.60;;;;;;;13.39;100.00;100951.75;5022710;28;20061;-78
2023/07/21 05:48:36;;;;;;;28.20;16.75;;;;;;;13.46;100.00;100952.09;5020942;28;20080;-79
2023/07/21 05:51:02;;;;;;;26.20;17.20;;;;;;;13.53;100.00;100947.91;5013662;28;20498;-79
2023/07/21 05:53:27;;;;;;;26.60;16.50;;;;;;;13.62;100.00;100947.09;5020434;28;20501;-77
2023/07/21 05:55:52;;;;;;;25.58;16.63;;;;;;;13.70;100.00;100962.66;5019502;28;20071;-78
2023/07/21 05:58:18;;;;;;;27.27;17.38;;;;;;;13.76;100.00;100958.56;5023155;28;20030;-77
2023/07/21 06:00:44;;;;;;;25.88;15.27;;;;;;;13.84;100.00;100964.19;5017760;28;20037;-78
2023/07/21 06:03:09;;;;;;;26.85;15.82;;;;;;;13.91;100.00;100957.28;5021264;28;20022;-77
2023/07/21 06:05:36;;;;;;;25.45;15.38;;;;;;;14.01;100.00;100956.47;5022516;28;20025;-78
2023/07/21 06:08:05;;;;;;;24.75;15.55;;;;;;;14.07;100.00;100964.06;5025487;28;20382;-78
2023/07/21 06:10:31;;;;;;;27.38;15.73;;;;;;;14.14;100.00;100959.84;5008004;28;20103;-78
2023/07/21 06:12:57;;;;;;;26.10;16.83;;;;;;;14.21;100.00;100963.72;5014584;28;20477;-78
2023/07/21 06:15:24;;;;;;;24.70;15.80;;;;;;;14.26;100.00;100955.19;5021813;28;20091;-79
2023/07/21 06:17:49;;;;;;;25.40;14.98;;;;;;;14.33;100.00;100959.09;5024949;28;20497;-79
2023/07/21 06:20:15;;;;;;;26.25;16.00;;;;;;;14.43;100.00;100967.25;5015829;28;20156;-77
2023/07/21 06:22:40;;;;;;;25.73;15.60;;;;;;;14.50;100.00;100961.16;5023941;28;20049;-78
2023/07/21 06:25:06;;;;;;;26.40;14.77;;;;;;;14.58;100.00;100954.22;5019102;28;20457;-79
2023/07/21 06:27:31;;;;;;;28.85;15.55;;;;;;;14.65;100.00;100950.84;5021549;28;20413;-78
2023/07/21 06:29:57;;;;;;;26.75;15.73;;;;;;;14.75;100.00;100960.88;5020515;28;20027;-79
2023/07/21 06:32:23;;;;;;;26.48;15.20;;;;;;;14.83;100.00;100952.91;5020427;28;20022;-78
2023/07/21 06:34:49;;;;;;;25.55;14.90;;;;;;;14.90;100.00;100953.22;5010110;28;20092;-78
2023/07/21 06:37:14;;;;;;;27.55;14.45;;;;;;;14.92;100.00;100952.09;5014850;28;20029;-78
2023/07/21 06:39:39;;;;;;;25.95;15.02;;;;;;;14.96;100.00;100956.22;5014738;28;20401;-76
2023/07/21 06:42:07;;;;;;;24.25;13.32;;;;;;;15.03;100.00;100953.81;5016296;28;20026;-78
2023/07/21 06:44:34;;;;;;;27.10;14.65;;;;;;;15.07;99.84;100943.59;5022015;28;20041;-77
2023/07/21 06:46:59;;;;;;;26.75;15.35;;;;;;;15.13;100.00;100948.44;5022072;28;20053;-77
2023/07/21 06:49:25;;;;;;;25.77;15.73;;;;;;;15.20;100.00;100955.00;5024584;28;20025;-77
2023/07/21 06:51:50;;;;;;;26.33;15.57;;;;;;;15.25;99.95;100947.31;5023929;28;20567;-77
2023/07/21 06:54:15;;;;;;;28.20;15.73;;;;;;;15.31;100.00;100954.00;5022997;28;20042;-77
2023/07/21 06:56:41;;;;;;;25.75;16.13;;;;;;;15.35;99.28;100952.75;5024964;28;20083;-76
2023/07/21 06:59:07;;;;;;;26.45;15.43;;;;;;;15.40;99.91;100945.03;5018974;28;20030;-77
2023/07/21 07:01:32;;;;;;;25.80;14.32;;;;;;;15.43;98.67;100950.16;5003998;28;20109;-74
2023/07/21 07:03:59;;;;;;;26.25;15.63;;;;;;;15.51;100.00;100946.78;5012938;28;20141;-76
2023/07/21 07:06:27;;;;;;;26.55;15.32;;;;;;;15.58;100.00;100947.91;5016636;28;20029;-76
2023/07/21 07:08:52;;;;;;;26.20;15.73;;;;;;;15.60;97.18;100945.91;5026119;28;20037;-76
2023/07/21 07:11:18;;;;;;;25.67;15.30;;;;;;;15.66;96.40;100950.75;5023147;28;20116;-76
2023/07/21 07:13:43;;;;;;;27.00;16.20;;;;;;;15.69;95.61;100945.03;5019584;28;20116;-76
2023/07/21 07:16:09;;;;;;;26.60;16.17;;;;;;;15.77;96.56;100944.34;5020302;28;20026;-76
2023/07/21 07:18:34;;;;;;;26.35;16.23;;;;;;;15.82;95.92;100944.78;5012470;28;20030;-76
2023/07/21 07:20:59;;;;;;;30.00;13.55;;;;;;;15.87;94.84;100936.19;5018862;28;20026;-76
2023/07/21 07:23:25;;;;;;;28.58;17.38;;;;;;;15.97;97.07;100934.31;5008116;28;20103;-77
2023/07/21 07:25:53;;;;;;;26.58;14.25;;;;;;;16.04;95.48;100931.91;5020888;28;20037;-77
2023/07/21 07:28:20;;;;;;;27.15;17.00;;;;;;;16.12;95.00;100934.75;5014787;28;20026;-76
2023/07/21 07:30:47;;;;;;;28.23;16.27;;;;;;;16.21;94.67;100939.28;5016803;28;20513;-77
2023/07/21 07:33:16;;;;;;;23.23;12.57;;;;;;;16.27;93.40;100932.41;5028845;28;20024;-76
2023/07/21 07:35:48;;;;;;;27.08;16.77;;;;;;;16.38;93.00;100936.78;5018154;28;20474;-77
2023/07/21 07:38:14;;;;;;;25.95;15.35;;;;;;;16.46;92.88;100938.75;5020937;28;20425;-77
2023/07/21 07:40:39;;;;;;;28.65;15.15;;;;;;;16.55;92.44;100937.88;5021967;28;20029;-77
2023/07/21 07:43:04;;;;;;;21.80;9.93;;;;;;;16.60;93.58;100949.13;5015394;28;20036;-77
2023/07/21 07:45:30;;;;;;;24.38;14.07;;;;;;;16.68;92.61;100956.53;5015497;28;20021;-77
2023/07/21 07:47:55;;;;;;;28.30;15.25;;;;;;;16.74;91.00;100950.50;5013397;28;20057;-77
2023/07/21 07:50:21;;;;;;;26.33;15.13;;;;;;;16.83;92.92;100955.03;5017023;28;20022;-76
2023/07/21 07:52:46;;;;;;;23.70;11.93;;;;;;;16.88;91.42;100952.75;5019491;28;20394;-76
2023/07/21 07:55:12;;;;;;;24.35;14.02;;;;;;;16.92;92.68;100946.00;5020015;28;20092;-75
2023/07/21 07:57:37;;;;;;;24.25;13.95;;;;;;;16.95;86.24;100942.13;5021114;28;20021;-75
2023/07/21 08:00:06;;;;;;;23.02;11.95;;;;;;;17.00;85.76;100952.53;5024393;28;20060;-76
2023/07/21 08:02:31;;;;;;;24.77;11.55;;;;;;;17.05;86.46;100958.38;5017854;28;20026;-76
2023/07/21 08:04:57;;;;;;;22.50;11.80;;;;;;;17.08;86.85;100950.75;5016851;28;20079;-77
2023/07/21 08:07:22;;;;;;;25.67;12.32;;;;;;;17.11;83.61;100950.44;5017492;28;20485;-78
2023/07/21 08:09:47;;;;;;;23.02;11.25;;;;;;;17.18;84.92;100947.97;5020696;28;20181;-78
2023/07/21 08:12:13;;;;;;;23.15;11.57;;;;;;;17.22;85.30;100941.25;5016230;28;20451;-78
2023/07/21 08:14:39;;;;;;;24.67;11.27;;;;;;;17.25;84.17;100942.81;5016528;28;20021;-78
2023/07/21 08:17:04;;;;;;;24.83;12.93;;;;;;;17.28;84.52;100942.50;5021803;28;20037;-78
2023/07/21 08:19:32;;;;;;;25.20;14.07;;;;;;;17.29;83.38;100939.63;5011095;28;20018;-78
2023/07/21 08:22:01;;;;;;;24.75;14.05;;;;;;;17.34;85.37;100939.16;5017135;28;20032;-79
2023/07/21 08:24:27;;;;;;;25.52;15.23;;;;;;;17.40;83.42;100941.25;5015359;28;20037;-78
2023/07/21 08:26:52;;;;;;;25.15;14.82;;;;;;;17.45;83.50;100932.63;5010134;28;20456;-78
2023/07/21 08:29:17;;;;;;;25.08;14.15;;;;;;;17.49;82.58;100933.19;5011068;28;20030;-78
2023/07/21 08:31:42;;;;;;;27.80;16.02;;;;;;;17.54;83.29;100941.69;5011159;28;20026;-79
2023/07/21 08:34:08;;;;;;;24.73;14.77;;;;;;;17.55;82.04;100941.53;5017058;28;20030;-78
2023/07/21 08:36:33;;;;;;;25.67;14.55;;;;;;;17.58;84.59;100941.22;5020504;28;20052;-78
2023/07/21 08:38:59;;;;;;;29.25;16.23;;;;;;;17.61;84.13;100949.09;5023943;28;20497;-78
2023/07/21 08:41:24;;;;;;;27.33;16.88;;;;;;;17.65;84.17;100936.03;5017384;28;20500;-78
2023/07/21 08:43:50;;;;;;;33.83;18.02;;;;;;;17.68;82.18;100943.88;5023660;28;20668;-78
2023/07/21 08:46:15;;;;;;;27.15;15.70;;;;;;;17.73;82.94;100940.69;5012405;28;20804;-78
2023/07/21 08:48:41;;;;;;;26.75;15.95;;;;;;;17.75;81.71;100944.97;5012602;28;20034;-78
2023/07/21 08:51:07;;;;;;;25.70;15.27;;;;;;;17.81;82.01;100949.75;5026739;28;20049;-79
2023/07/21 08:53:33;;;;;;;27.40;15.18;;;;;;;17.86;80.73;100951.16;5023360;28;20040;-78
2023/07/21 08:56:00;;;;;;;25.65;14.93;;;;;;;17.88;79.25;100955.44;5011792;28;20058;-79
2023/07/21 08:58:27;;;;;;;23.58;12.25;;;;;;;17.85;77.60;100949.44;5013564;28;20117;-78
2023/07/21 09:00:53;;;;;;;27.45;13.50;;;;;;;17.86;78.57;100953.88;5018594;28;20022;-79
2023/07/21 09:03:23;;;;;;;26.48;14.80;;;;;;;17.85;78.71;100949.44;5023006;28;20504;-78
2023/07/21 09:05:50;;;;;;;25.73;14.15;;;;;;;17.87;79.15;100956.44;5020436;28;20375;-79
2023/07/21 09:08:27;;;;;;;26.55;15.25;;;;;;;17.89;79.73;100950.84;5013856;28;20032;-79
2023/07/21 09:10:57;;;;;;;25.42;14.00;;;;;;;17.92;78.27;100950.53;5015412;28;20398;-78
2023/07/21 09:13:23;;;;;;;26.00;14.05;;;;;;;17.94;78.38;100948.53;5011148;28;20028;-79
2023/07/21 09:15:57;;;;;;;29.15;15.80;;;;;;;17.96;78.90;100950.06;5013281;28;20029;-79
2023/07/21 09:18:39;;;;;;;26.67;15.23;;;;;;;18.02;79.77;100948.59;5020651;28;20167;-79
2023/07/21 09:21:04;;;;;;;29.90;18.33;;;;;;;18.09;79.01;100944.22;5020193;28;20128;-79
2023/07/21 09:23:29;;;;;;;30.92;20.13;;;;;;;18.17;78.33;100944.28;5018323;28;20193;-79
2023/07/21 09:25:57;;;;;;;24.45;14.48;;;;;;;18.21;78.73;100939.34;5021764;28;20481;-78
2023/07/21 09:28:43;;;;;;;31.00;20.02;;;;;;;18.29;78.05;100946.75;5019179;28;20054;-79
2023/07/21 09:31:09;;;;;;;32.85;19.13;;;;;;;18.37;76.78;100930.44;5011100;28;20060;-78
2023/07/21 09:33:39;;;;;;;30.25;19.25;;;;;;;18.51;77.66;100931.72;5023504;28;20024;-80
2023/07/21 09:36:09;;;;;;;30.52;20.45;;;;;;;18.60;76.68;100938.06;5015060;28;20022;-78
2023/07/21 09:38:37;;;;;;;31.05;18.83;;;;;;;18.67;76.63;100936.41;5021968;28;20017;-79
2023/07/21 09:41:04;;;;;;;31.20;19.08;;;;;;;18.73;73.96;100932.13;5016777;28;20026;-79
2023/07/21 09:43:30;;;;;;;30.00;18.90;;;;;;;18.74;72.58;100929.28;5017781;28;20104;-78
2023/07/21 09:45:58;;;;;;;30.88;18.35;;;;;;;18.80;71.81;100920.44;5015236;28;20038;-78
2023/07/21 09:48:25;;;;;;;29.63;18.52;;;;;;;18.89;73.51;100913.19;5024898;28;20064;-78
2023/07/21 09:50:51;;;;;;;26.95;16.63;;;;;;;18.99;74.51;100913.03;5016515;28;20026;-78
2023/07/21 09:53:20;;;;;;;27.02;17.55;;;;;;;19.02;70.10;100913.56;5014555;28;20079;-78
2023/07/21 09:55:47;;;;;;;27.80;17.38;;;;;;;19.04;70.58;100914.22;5024510;28;20052;-78
2023/07/21 09:58:16;;;;;;;28.33;16.92;;;;;;;19.10;69.24;100910.00;5021683;28;20040;-78
2023/07/21 10:00:42;;;;;;;32.88;16.95;;;;;;;19.17;69.73;100916.47;5019254;28;20371;-78
2023/07/21 10:03:08;;;;;;;28.85;16.85;;;;;;;19.10;68.78;100918.16;5023880;28;20086;-75
2023/07/21 10:05:36;;;;;;;25.77;16.05;;;;;;;19.06;69.42;100915.94;5016946;28;20034;-77
2023/07/21 10:08:03;;;;;;;30.10;16.88;;;;;;;19.00;69.62;100922.91;5008730;28;20029;-79
2023/07/21 10:10:29;;;;;;;27.42;16.63;;;;;;;18.96;68.92;100921.53;5015175;28;20022;-78
2023/07/21 10:12:56;;;;;;;29.15;17.52;;;;;;;18.90;68.75;100927.66;5015926;28;20030;-78
2023/07/21 10:15:32;;;;;;;27.52;16.77;;;;;;;18.85;74.38;100931.69;5005015;28;20033;-78
2023/07/21 10:18:03;;;;;;;30.40;19.73;;;;;;;18.79;80.69;100926.06;5003818;28;20033;-79
2023/07/21 10:20:45;;;;;;;29.60;21.38;;;;;;;18.73;86.28;100929.41;5012193;28;20071;-79
2023/07/21 10:23:16;;;;;;;33.25;21.67;;;;;;;18.59;89.43;100931.75;5010348;28;20041;-78
2023/07/21 10:25:53;;;;;;;32.75;22.00;;;;;;;18.54;89.29;100934.13;5018481;28;20022;-78
2023/07/21 10:28:34;;;;;;;33.92;22.08;;;;;;;18.41;90.79;100931.00;5016890;28;20030;-77
2023/07/21 10:31:24;;;;;;;31.88;21.38;;;;;;;18.28;90.50;100939.59;5011688;28;20021;-77
2023/07/21 10:34:08;;;;;;;35.92;24.80;;;;;;;18.13;93.25;100942.88;5014176;28;20064;-77
2023/07/21 10:36:59;;;;;;;36.78;24.35;;;;;;;18.02;98.11;100953.19;5024354;28;20394;-78
2023/07/21 10:39:27;;;;;;;35.50;24.08;;;;;;;17.77;96.59;100955.66;5014850;28;20034;-77
2023/07/21 10:41:55;;;;;;;33.33;25.02;;;;;;;17.57;98.82;100946.81;5024261;28;20026;-78
2023/07/21 10:44:22;;;;;;;35.45;25.90;;;;;;;17.45;100.00;100948.94;5020970;28;20026;-77
2023/07/21 10:46:49;;;;;;;34.20;25.88;;;;;;;17.33;100.00;100948.31;5012557;28;20040;-78
2023/07/21 10:49:16;;;;;;;36.92;27.38;;;;;;;17.21;100.00;100946.84;5006814;28;20054;-80
2023/07/21 10:51:46;;;;;;;35.13;24.98;;;;;;;17.15;100.00;100942.03;5020096;28;20401;-78
2023/07/21 10:54:12;;;;;;;35.15;24.45;;;;;;;17.03;100.00;100950.38;5010133;28;20062;-79
2023/07/21 10:56:39;;;;;;;33.53;25.95;;;;;;;16.93;100.00;100955.84;5005069;28;20034;-78
2023/07/21 10:59:05;;;;;;;38.35;25.92;;;;;;;16.88;100.00;100968.16;5013699;28;20225;-79
2023/07/21 11:01:31;;;;;;;29.58;18.63;;;;;;;16.78;100.00;100966.34;5020016;28;20029;-78
2023/07/21 11:03:57;;;;;;;26.92;16.10;;;;;;;16.68;100.00;100965.53;5015872;28;20074;-78
2023/07/21 11:06:23;;;;;;;24.95;11.38;;;;;;;16.51;96.49;100960.88;5021203;28;20499;-78